KIAD

Washington Dulles International Airport

Washington, Virginia, USA
METAR KIAD 141652Z 29003KT 5SM HZ BKN065 OVC080 06/03 A3036 RMK AO2 SLP283 T00610028
Observed Flight Rules
Dec-14 @ 16:52 UTC (38 minutes ago) Marginal Visual Flight Rules
Wind Visibility Clouds Conditions
290° at 3 knots 5 miles
  • Broken at 6,500' AGL
  • Overcast at 8,000' AGL
  • Haze
Temperatures Readings
Current 6°C / 43°F
Dewpoint 3°C / 37°F
Humidity 81%
Altimeter 30.36" Hg
Pressure 1028.3 hPa
Elevation 93
METAR KIAD 141652Z 29003KT 5SM HZ BKN065 OVC080 06/03 A3036 RMK AO2 SLP283 T00610028
Observed Flight Rules
Dec-14 @ 16:52 UTC
(38 minutes ago)
MVFR
Wind Visibility
290° at 3 knots 5 miles
Clouds
  • Broken at 6,500' AGL
  • Overcast at 8,000' AGL
Conditions
  • Haze
Temperature Dewpoint
6°C / 43°F 3°C / 37°F
Humidity Altimeter Pressure
81% 30.36" Hg 1028.3 hPa